sensor_id;sensor_type;location;lat;lon;timestamp;P1;durP1;ratioP1;P2;durP2;ratioP2
7939;SDS011;4015;48.888;9.226;2023-09-18T00:01:24;5.65;;;3.42;;
7939;SDS011;4015;48.888;9.226;2023-09-18T00:03:49;3.88;;;3.58;;
7939;SDS011;4015;48.888;9.226;2023-09-18T00:06:14;4.07;;;3.25;;
7939;SDS011;4015;48.888;9.226;2023-09-18T00:08:40;4.65;;;3.42;;
7939;SDS011;4015;48.888;9.226;2023-09-18T00:11:05;3.92;;;3.63;;
7939;SDS011;4015;48.888;9.226;2023-09-18T00:13:31;4.93;;;3.38;;
7939;SDS011;4015;48.888;9.226;2023-09-18T00:15:57;4.07;;;3.40;;
7939;SDS011;4015;48.888;9.226;2023-09-18T00:18:24;3.60;;;3.30;;
7939;SDS011;4015;48.888;9.226;2023-09-18T00:20:49;4.47;;;3.45;;
7939;SDS011;4015;48.888;9.226;2023-09-18T00:23:16;4.13;;;3.72;;
7939;SDS011;4015;48.888;9.226;2023-09-18T00:25:42;3.15;;;2.85;;
7939;SDS011;4015;48.888;9.226;2023-09-18T00:28:07;3.30;;;3.00;;
7939;SDS011;4015;48.888;9.226;2023-09-18T00:30:33;3.78;;;3.47;;
7939;SDS011;4015;48.888;9.226;2023-09-18T00:32:59;3.40;;;3.20;;
7939;SDS011;4015;48.888;9.226;2023-09-18T00:35:24;4.68;;;3.30;;
7939;SDS011;4015;48.888;9.226;2023-09-18T00:37:49;3.97;;;3.17;;
7939;SDS011;4015;48.888;9.226;2023-09-18T00:40:15;4.65;;;2.95;;
7939;SDS011;4015;48.888;9.226;2023-09-18T00:42:40;3.17;;;2.75;;
7939;SDS011;4015;48.888;9.226;2023-09-18T00:45:06;3.45;;;2.88;;
7939;SDS011;4015;48.888;9.226;2023-09-18T00:47:31;4.05;;;3.50;;
7939;SDS011;4015;48.888;9.226;2023-09-18T00:49:57;3.70;;;3.38;;
7939;SDS011;4015;48.888;9.226;2023-09-18T00:52:22;4.03;;;3.63;;
7939;SDS011;4015;48.888;9.226;2023-09-18T00:54:49;4.85;;;3.22;;
7939;SDS011;4015;48.888;9.226;2023-09-18T00:57:16;4.30;;;3.47;;
7939;SDS011;4015;48.888;9.226;2023-09-18T00:59:41;4.15;;;2.92;;
7939;SDS011;4015;48.888;9.226;2023-09-18T01:02:07;3.72;;;3.42;;
7939;SDS011;4015;48.888;9.226;2023-09-18T01:04:33;3.60;;;3.30;;
7939;SDS011;4015;48.888;9.226;2023-09-18T01:06:59;3.60;;;3.30;;
7939;SDS011;4015;48.888;9.226;2023-09-18T01:09:28;4.53;;;3.08;;
7939;SDS011;4015;48.888;9.226;2023-09-18T01:12:03;3.65;;;3.35;;
7939;SDS011;4015;48.888;9.226;2023-09-18T01:14:37;4.32;;;3.42;;
7939;SDS011;4015;48.888;9.226;2023-09-18T01:17:04;4.32;;;3.17;;
7939;SDS011;4015;48.888;9.226;2023-09-18T01:19:34;6.05;;;3.40;;
7939;SDS011;4015;48.888;9.226;2023-09-18T01:22:04;3.20;;;2.90;;
7939;SDS011;4015;48.888;9.226;2023-09-18T01:24:31;3.38;;;3.08;;
7939;SDS011;4015;48.888;9.226;2023-09-18T01:27:00;5.45;;;3.15;;
7939;SDS011;4015;48.888;9.226;2023-09-18T01:29:26;4.95;;;3.63;;
7939;SDS011;4015;48.888;9.226;2023-09-18T01:31:52;5.95;;;3.80;;
7939;SDS011;4015;48.888;9.226;2023-09-18T01:34:19;4.90;;;3.25;;
7939;SDS011;4015;48.888;9.226;2023-09-18T01:36:47;4.72;;;3.70;;
7939;SDS011;4015;48.888;9.226;2023-09-18T01:39:14;4.97;;;3.20;;
7939;SDS011;4015;48.888;9.226;2023-09-18T01:41:41;4.72;;;3.35;;
7939;SDS011;4015;48.888;9.226;2023-09-18T01:44:07;4.05;;;3.30;;
7939;SDS011;4015;48.888;9.226;2023-09-18T01:46:33;4.72;;;3.00;;
7939;SDS011;4015;48.888;9.226;2023-09-18T01:49:01;4.90;;;3.42;;
7939;SDS011;4015;48.888;9.226;2023-09-18T01:51:27;3.95;;;3.55;;
7939;SDS011;4015;48.888;9.226;2023-09-18T01:53:52;4.38;;;3.97;;
7939;SDS011;4015;48.888;9.226;2023-09-18T01:56:18;3.92;;;3.30;;
7939;SDS011;4015;48.888;9.226;2023-09-18T01:58:43;5.15;;;3.53;;
7939;SDS011;4015;48.888;9.226;2023-09-18T02:01:08;5.38;;;3.70;;
7939;SDS011;4015;48.888;9.226;2023-09-18T02:03:34;6.38;;;3.40;;
7939;SDS011;4015;48.888;9.226;2023-09-18T02:05:59;5.93;;;3.95;;
7939;SDS011;4015;48.888;9.226;2023-09-18T02:08:25;5.75;;;3.60;;
7939;SDS011;4015;48.888;9.226;2023-09-18T02:10:50;6.50;;;3.58;;
7939;SDS011;4015;48.888;9.226;2023-09-18T02:13:15;5.38;;;3.38;;
7939;SDS011;4015;48.888;9.226;2023-09-18T02:15:43;4.97;;;3.08;;
7939;SDS011;4015;48.888;9.226;2023-09-18T02:18:08;6.15;;;3.40;;
7939;SDS011;4015;48.888;9.226;2023-09-18T02:20:39;6.18;;;3.40;;
7939;SDS011;4015;48.888;9.226;2023-09-18T02:23:06;4.75;;;3.33;;
7939;SDS011;4015;48.888;9.226;2023-09-18T02:25:31;7.00;;;3.70;;
7939;SDS011;4015;48.888;9.226;2023-09-18T02:27:56;3.60;;;3.28;;
7939;SDS011;4015;48.888;9.226;2023-09-18T02:30:21;7.13;;;3.92;;
7939;SDS011;4015;48.888;9.226;2023-09-18T02:32:47;4.97;;;3.55;;
7939;SDS011;4015;48.888;9.226;2023-09-18T02:35:12;6.05;;;4.20;;
7939;SDS011;4015;48.888;9.226;2023-09-18T02:37:38;4.70;;;3.83;;
7939;SDS011;4015;48.888;9.226;2023-09-18T02:40:03;6.63;;;4.43;;
7939;SDS011;4015;48.888;9.226;2023-09-18T02:42:30;5.47;;;3.85;;
7939;SDS011;4015;48.888;9.226;2023-09-18T02:44:55;6.30;;;3.58;;
7939;SDS011;4015;48.888;9.226;2023-09-18T02:47:20;10.05;;;4.68;;
7939;SDS011;4015;48.888;9.226;2023-09-18T02:49:46;6.43;;;3.97;;
7939;SDS011;4015;48.888;9.226;2023-09-18T02:52:11;5.68;;;3.58;;
7939;SDS011;4015;48.888;9.226;2023-09-18T02:54:37;8.35;;;3.30;;
7939;SDS011;4015;48.888;9.226;2023-09-18T02:57:02;8.02;;;3.38;;
7939;SDS011;4015;48.888;9.226;2023-09-18T02:59:27;6.15;;;3.13;;
7939;SDS011;4015;48.888;9.226;2023-09-18T03:01:53;6.38;;;3.45;;
7939;SDS011;4015;48.888;9.226;2023-09-18T03:04:18;5.95;;;3.15;;
7939;SDS011;4015;48.888;9.226;2023-09-18T03:06:44;8.07;;;3.22;;
7939;SDS011;4015;48.888;9.226;2023-09-18T03:09:10;9.27;;;3.70;;
7939;SDS011;4015;48.888;9.226;2023-09-18T03:11:35;10.55;;;3.22;;
7939;SDS011;4015;48.888;9.226;2023-09-18T03:14:00;7.82;;;3.15;;
7939;SDS011;4015;48.888;9.226;2023-09-18T03:16:26;8.35;;;3.20;;
7939;SDS011;4015;48.888;9.226;2023-09-18T03:18:51;7.70;;;2.95;;
7939;SDS011;4015;48.888;9.226;2023-09-18T03:21:16;6.05;;;3.30;;
7939;SDS011;4015;48.888;9.226;2023-09-18T03:23:41;9.88;;;3.80;;
7939;SDS011;4015;48.888;9.226;2023-09-18T03:26:07;6.97;;;3.35;;
7939;SDS011;4015;48.888;9.226;2023-09-18T03:28:32;4.00;;;3.03;;
7939;SDS011;4015;48.888;9.226;2023-09-18T03:30:58;7.80;;;3.35;;
7939;SDS011;4015;48.888;9.226;2023-09-18T03:33:23;8.25;;;3.22;;
7939;SDS011;4015;48.888;9.226;2023-09-18T03:35:50;8.90;;;3.50;;
7939;SDS011;4015;48.888;9.226;2023-09-18T03:38:17;8.90;;;3.50;;
7939;SDS011;4015;48.888;9.226;2023-09-18T03:40:42;10.48;;;3.90;;
7939;SDS011;4015;48.888;9.226;2023-09-18T03:43:09;5.97;;;3.15;;
7939;SDS011;4015;48.888;9.226;2023-09-18T03:45:35;6.25;;;3.28;;
7939;SDS011;4015;48.888;9.226;2023-09-18T03:48:00;11.75;;;4.05;;
7939;SDS011;4015;48.888;9.226;2023-09-18T03:50:26;8.95;;;3.53;;
7939;SDS011;4015;48.888;9.226;2023-09-18T03:52:52;6.30;;;3.75;;
7939;SDS011;4015;48.888;9.226;2023-09-18T03:55:17;7.57;;;4.07;;
7939;SDS011;4015;48.888;9.226;2023-09-18T03:57:42;6.78;;;3.30;;
7939;SDS011;4015;48.888;9.226;2023-09-18T04:00:10;7.32;;;3.63;;
7939;SDS011;4015;48.888;9.226;2023-09-18T04:02:36;8.38;;;3.72;;
7939;SDS011;4015;48.888;9.226;2023-09-18T04:05:01;8.15;;;3.92;;
7939;SDS011;4015;48.888;9.226;2023-09-18T04:07:28;13.25;;;3.47;;
7939;SDS011;4015;48.888;9.226;2023-09-18T04:09:53;8.15;;;3.80;;
7939;SDS011;4015;48.888;9.226;2023-09-18T04:12:18;10.23;;;3.53;;
7939;SDS011;4015;48.888;9.226;2023-09-18T04:14:44;4.78;;;3.17;;
7939;SDS011;4015;48.888;9.226;2023-09-18T04:17:09;7.40;;;3.45;;
7939;SDS011;4015;48.888;9.226;2023-09-18T04:19:35;9.32;;;3.72;;
7939;SDS011;4015;48.888;9.226;2023-09-18T04:22:00;9.65;;;3.47;;
7939;SDS011;4015;48.888;9.226;2023-09-18T04:24:25;8.75;;;3.88;;
7939;SDS011;4015;48.888;9.226;2023-09-18T04:26:51;10.57;;;4.50;;
7939;SDS011;4015;48.888;9.226;2023-09-18T04:29:17;16.38;;;5.18;;
7939;SDS011;4015;48.888;9.226;2023-09-18T04:31:43;15.23;;;3.70;;
7939;SDS011;4015;48.888;9.226;2023-09-18T04:34:08;6.95;;;3.00;;
7939;SDS011;4015;48.888;9.226;2023-09-18T04:36:33;7.28;;;3.03;;
7939;SDS011;4015;48.888;9.226;2023-09-18T04:38:59;8.30;;;3.65;;
7939;SDS011;4015;48.888;9.226;2023-09-18T04:41:24;8.98;;;4.22;;
7939;SDS011;4015;48.888;9.226;2023-09-18T04:43:49;8.50;;;3.47;;
7939;SDS011;4015;48.888;9.226;2023-09-18T04:46:15;6.85;;;3.85;;
7939;SDS011;4015;48.888;9.226;2023-09-18T04:48:41;10.77;;;4.00;;
7939;SDS011;4015;48.888;9.226;2023-09-18T04:51:06;8.93;;;3.92;;
7939;SDS011;4015;48.888;9.226;2023-09-18T04:53:32;6.90;;;3.75;;
7939;SDS011;4015;48.888;9.226;2023-09-18T04:55:57;12.30;;;4.15;;
7939;SDS011;4015;48.888;9.226;2023-09-18T04:58:23;7.95;;;3.78;;
7939;SDS011;4015;48.888;9.226;2023-09-18T05:00:55;11.45;;;3.85;;
7939;SDS011;4015;48.888;9.226;2023-09-18T05:03:21;9.18;;;3.15;;
7939;SDS011;4015;48.888;9.226;2023-09-18T05:05:47;13.35;;;4.10;;
7939;SDS011;4015;48.888;9.226;2023-09-18T05:08:13;9.85;;;4.70;;
7939;SDS011;4015;48.888;9.226;2023-09-18T05:10:38;11.80;;;4.82;;
7939;SDS011;4015;48.888;9.226;2023-09-18T05:13:04;14.57;;;4.70;;
7939;SDS011;4015;48.888;9.226;2023-09-18T05:15:30;8.02;;;4.25;;
7939;SDS011;4015;48.888;9.226;2023-09-18T05:17:56;7.45;;;4.07;;
7939;SDS011;4015;48.888;9.226;2023-09-18T05:20:26;8.27;;;3.60;;
7939;SDS011;4015;48.888;9.226;2023-09-18T05:22:53;7.45;;;4.53;;
7939;SDS011;4015;48.888;9.226;2023-09-18T05:25:19;6.20;;;3.50;;
7939;SDS011;4015;48.888;9.226;2023-09-18T05:27:46;6.75;;;3.75;;
7939;SDS011;4015;48.888;9.226;2023-09-18T05:30:18;8.45;;;4.30;;
7939;SDS011;4015;48.888;9.226;2023-09-18T05:32:46;12.73;;;4.53;;
7939;SDS011;4015;48.888;9.226;2023-09-18T05:35:13;7.28;;;3.58;;
7939;SDS011;4015;48.888;9.226;2023-09-18T05:37:38;10.70;;;4.15;;
7939;SDS011;4015;48.888;9.226;2023-09-18T05:40:05;10.98;;;5.20;;
7939;SDS011;4015;48.888;9.226;2023-09-18T05:42:34;9.40;;;4.35;;
7939;SDS011;4015;48.888;9.226;2023-09-18T05:45:00;12.63;;;4.53;;
7939;SDS011;4015;48.888;9.226;2023-09-18T05:47:25;11.13;;;4.07;;
7939;SDS011;4015;48.888;9.226;2023-09-18T05:49:50;7.05;;;3.72;;
7939;SDS011;4015;48.888;9.226;2023-09-18T05:52:16;9.70;;;4.60;;
7939;SDS011;4015;48.888;9.226;2023-09-18T05:54:41;14.60;;;4.13;;
7939;SDS011;4015;48.888;9.226;2023-09-18T05:57:06;11.90;;;3.83;;
7939;SDS011;4015;48.888;9.226;2023-09-18T05:59:32;9.50;;;3.97;;
7939;SDS011;4015;48.888;9.226;2023-09-18T06:01:57;11.27;;;4.50;;
7939;SDS011;4015;48.888;9.226;2023-09-18T06:04:22;8.93;;;4.07;;
7939;SDS011;4015;48.888;9.226;2023-09-18T06:06:48;9.70;;;3.85;;
7939;SDS011;4015;48.888;9.226;2023-09-18T06:09:14;12.02;;;4.28;;
7939;SDS011;4015;48.888;9.226;2023-09-18T06:11:39;6.47;;;3.97;;
7939;SDS011;4015;48.888;9.226;2023-09-18T06:14:04;12.80;;;3.92;;
7939;SDS011;4015;48.888;9.226;2023-09-18T06:16:30;9.77;;;3.47;;
7939;SDS011;4015;48.888;9.226;2023-09-18T06:18:56;7.20;;;3.75;;
7939;SDS011;4015;48.888;9.226;2023-09-18T06:21:21;6.78;;;3.50;;
7939;SDS011;4015;48.888;9.226;2023-09-18T06:23:46;10.25;;;3.05;;
7939;SDS011;4015;48.888;9.226;2023-09-18T06:26:12;9.05;;;3.00;;
7939;SDS011;4015;48.888;9.226;2023-09-18T06:28:39;14.50;;;4.43;;
7939;SDS011;4015;48.888;9.226;2023-09-18T06:31:04;10.05;;;3.45;;
7939;SDS011;4015;48.888;9.226;2023-09-18T06:33:29;8.32;;;3.63;;
7939;SDS011;4015;48.888;9.226;2023-09-18T06:35:55;7.32;;;3.33;;
7939;SDS011;4015;48.888;9.226;2023-09-18T06:38:20;6.43;;;3.35;;
7939;SDS011;4015;48.888;9.226;2023-09-18T06:40:46;10.02;;;3.90;;
7939;SDS011;4015;48.888;9.226;2023-09-18T06:43:12;5.75;;;3.10;;
7939;SDS011;4015;48.888;9.226;2023-09-18T06:45:37;8.45;;;3.45;;
7939;SDS011;4015;48.888;9.226;2023-09-18T06:48:04;7.30;;;3.47;;
7939;SDS011;4015;48.888;9.226;2023-09-18T06:50:30;7.07;;;3.00;;
7939;SDS011;4015;48.888;9.226;2023-09-18T06:52:55;7.60;;;3.38;;
7939;SDS011;4015;48.888;9.226;2023-09-18T06:55:21;7.50;;;2.88;;
7939;SDS011;4015;48.888;9.226;2023-09-18T06:57:47;9.02;;;3.63;;
7939;SDS011;4015;48.888;9.226;2023-09-18T07:00:14;6.68;;;2.92;;
7939;SDS011;4015;48.888;9.226;2023-09-18T07:02:45;10.85;;;3.60;;
7939;SDS011;4015;48.888;9.226;2023-09-18T07:05:11;6.78;;;2.75;;
7939;SDS011;4015;48.888;9.226;2023-09-18T07:07:37;7.78;;;3.20;;
7939;SDS011;4015;48.888;9.226;2023-09-18T07:10:02;4.82;;;2.90;;
7939;SDS011;4015;48.888;9.226;2023-09-18T07:12:28;4.32;;;2.63;;
7939;SDS011;4015;48.888;9.226;2023-09-18T07:14:53;7.35;;;2.70;;
7939;SDS011;4015;48.888;9.226;2023-09-18T07:17:18;7.15;;;3.40;;
7939;SDS011;4015;48.888;9.226;2023-09-18T07:19:43;8.93;;;3.55;;
7939;SDS011;4015;48.888;9.226;2023-09-18T07:22:09;9.32;;;3.30;;
7939;SDS011;4015;48.888;9.226;2023-09-18T07:24:34;9.98;;;2.75;;
7939;SDS011;4015;48.888;9.226;2023-09-18T07:26:59;8.55;;;2.90;;
7939;SDS011;4015;48.888;9.226;2023-09-18T07:29:25;9.40;;;3.10;;
7939;SDS011;4015;48.888;9.226;2023-09-18T07:31:51;6.30;;;3.20;;
7939;SDS011;4015;48.888;9.226;2023-09-18T07:34:16;8.88;;;3.45;;
7939;SDS011;4015;48.888;9.226;2023-09-18T07:36:42;9.10;;;2.92;;
7939;SDS011;4015;48.888;9.226;2023-09-18T07:39:08;9.05;;;3.67;;
7939;SDS011;4015;48.888;9.226;2023-09-18T07:41:34;5.95;;;3.28;;
7939;SDS011;4015;48.888;9.226;2023-09-18T07:44:00;5.38;;;2.97;;
7939;SDS011;4015;48.888;9.226;2023-09-18T07:46:25;7.28;;;3.67;;
7939;SDS011;4015;48.888;9.226;2023-09-18T07:48:51;7.43;;;2.95;;
7939;SDS011;4015;48.888;9.226;2023-09-18T07:51:16;9.20;;;3.22;;
7939;SDS011;4015;48.888;9.226;2023-09-18T07:53:42;7.60;;;2.50;;
7939;SDS011;4015;48.888;9.226;2023-09-18T07:56:08;11.43;;;2.78;;
7939;SDS011;4015;48.888;9.226;2023-09-18T07:58:34;6.97;;;2.80;;
7939;SDS011;4015;48.888;9.226;2023-09-18T08:01:03;5.10;;;2.83;;
7939;SDS011;4015;48.888;9.226;2023-09-18T08:03:31;5.85;;;2.65;;
7939;SDS011;4015;48.888;9.226;2023-09-18T08:05:57;5.18;;;2.60;;
7939;SDS011;4015;48.888;9.226;2023-09-18T08:08:22;4.97;;;2.22;;
7939;SDS011;4015;48.888;9.226;2023-09-18T08:10:51;5.28;;;2.55;;
7939;SDS011;4015;48.888;9.226;2023-09-18T08:13:17;6.13;;;2.22;;
7939;SDS011;4015;48.888;9.226;2023-09-18T08:15:43;5.82;;;1.95;;
7939;SDS011;4015;48.888;9.226;2023-09-18T08:18:09;6.93;;;1.92;;
7939;SDS011;4015;48.888;9.226;2023-09-18T08:20:35;8.63;;;2.22;;
7939;SDS011;4015;48.888;9.226;2023-09-18T08:23:03;4.38;;;1.88;;
7939;SDS011;4015;48.888;9.226;2023-09-18T08:25:30;4.53;;;2.03;;
7939;SDS011;4015;48.888;9.226;2023-09-18T08:27:56;5.07;;;1.52;;
7939;SDS011;4015;48.888;9.226;2023-09-18T08:30:21;5.63;;;1.95;;
7939;SDS011;4015;48.888;9.226;2023-09-18T08:32:46;5.35;;;1.50;;
7939;SDS011;4015;48.888;9.226;2023-09-18T08:35:12;8.50;;;1.48;;
7939;SDS011;4015;48.888;9.226;2023-09-18T08:37:39;3.17;;;1.30;;
7939;SDS011;4015;48.888;9.226;2023-09-18T08:40:06;7.20;;;1.67;;
7939;SDS011;4015;48.888;9.226;2023-09-18T08:42:35;4.25;;;1.40;;
7939;SDS011;4015;48.888;9.226;2023-09-18T08:45:02;3.55;;;1.30;;
7939;SDS011;4015;48.888;9.226;2023-09-18T08:47:32;5.78;;;1.20;;
7939;SDS011;4015;48.888;9.226;2023-09-18T08:49:58;2.90;;;1.38;;
7939;SDS011;4015;48.888;9.226;2023-09-18T08:52:25;2.38;;;1.10;;
7939;SDS011;4015;48.888;9.226;2023-09-18T08:54:51;2.80;;;1.50;;
7939;SDS011;4015;48.888;9.226;2023-09-18T08:57:18;2.85;;;1.45;;
7939;SDS011;4015;48.888;9.226;2023-09-18T08:59:44;2.78;;;1.30;;
7939;SDS011;4015;48.888;9.226;2023-09-18T09:02:12;5.47;;;1.50;;
7939;SDS011;4015;48.888;9.226;2023-09-18T09:04:38;2.95;;;1.10;;
7939;SDS011;4015;48.888;9.226;2023-09-18T09:07:04;2.97;;;1.15;;
7939;SDS011;4015;48.888;9.226;2023-09-18T09:09:29;2.00;;;1.10;;
7939;SDS011;4015;48.888;9.226;2023-09-18T09:11:56;6.13;;;1.48;;
7939;SDS011;4015;48.888;9.226;2023-09-18T09:14:21;9.68;;;1.40;;
7939;SDS011;4015;48.888;9.226;2023-09-18T09:16:52;4.20;;;1.52;;
7939;SDS011;4015;48.888;9.226;2023-09-18T09:19:27;5.72;;;1.63;;
7939;SDS011;4015;48.888;9.226;2023-09-18T09:22:03;5.40;;;1.60;;
7939;SDS011;4015;48.888;9.226;2023-09-18T09:24:35;5.47;;;2.33;;
7939;SDS011;4015;48.888;9.226;2023-09-18T09:27:04;5.43;;;2.35;;
7939;SDS011;4015;48.888;9.226;2023-09-18T09:29:29;5.25;;;1.58;;
7939;SDS011;4015;48.888;9.226;2023-09-18T09:31:55;4.00;;;1.75;;
7939;SDS011;4015;48.888;9.226;2023-09-18T09:34:25;6.72;;;2.08;;
7939;SDS011;4015;48.888;9.226;2023-09-18T09:36:54;6.43;;;2.13;;
7939;SDS011;4015;48.888;9.226;2023-09-18T09:39:21;5.07;;;1.60;;
7939;SDS011;4015;48.888;9.226;2023-09-18T09:41:51;7.03;;;2.33;;
7939;SDS011;4015;48.888;9.226;2023-09-18T09:44:17;7.00;;;1.75;;
7939;SDS011;4015;48.888;9.226;2023-09-18T09:46:46;3.65;;;1.90;;
7939;SDS011;4015;48.888;9.226;2023-09-18T09:49:16;3.00;;;1.50;;
7939;SDS011;4015;48.888;9.226;2023-09-18T09:51:44;4.53;;;1.95;;
7939;SDS011;4015;48.888;9.226;2023-09-18T09:54:10;3.38;;;1.70;;
7939;SDS011;4015;48.888;9.226;2023-09-18T09:56:46;3.90;;;1.65;;
7939;SDS011;4015;48.888;9.226;2023-09-18T09:59:15;3.45;;;1.40;;
7939;SDS011;4015;48.888;9.226;2023-09-18T10:01:42;7.32;;;1.98;;
7939;SDS011;4015;48.888;9.226;2023-09-18T10:04:15;5.70;;;2.10;;
7939;SDS011;4015;48.888;9.226;2023-09-18T10:06:45;4.75;;;1.75;;
7939;SDS011;4015;48.888;9.226;2023-09-18T10:09:16;2.67;;;1.45;;
7939;SDS011;4015;48.888;9.226;2023-09-18T10:11:45;3.28;;;1.77;;
7939;SDS011;4015;48.888;9.226;2023-09-18T10:14:14;6.68;;;2.03;;
7939;SDS011;4015;48.888;9.226;2023-09-18T10:16:45;4.32;;;2.10;;
7939;SDS011;4015;48.888;9.226;2023-09-18T10:19:21;6.22;;;1.70;;
7939;SDS011;4015;48.888;9.226;2023-09-18T10:22:01;5.07;;;1.73;;
7939;SDS011;4015;48.888;9.226;2023-09-18T10:24:47;3.35;;;1.83;;
7939;SDS011;4015;48.888;9.226;2023-09-18T10:27:17;4.07;;;1.58;;
7939;SDS011;4015;48.888;9.226;2023-09-18T10:29:46;4.45;;;1.70;;
7939;SDS011;4015;48.888;9.226;2023-09-18T10:32:16;3.55;;;1.65;;
7939;SDS011;4015;48.888;9.226;2023-09-18T10:34:43;7.88;;;2.22;;
7939;SDS011;4015;48.888;9.226;2023-09-18T10:37:10;4.50;;;1.80;;
7939;SDS011;4015;48.888;9.226;2023-09-18T10:39:38;3.25;;;1.52;;
7939;SDS011;4015;48.888;9.226;2023-09-18T10:42:10;4.07;;;2.30;;
7939;SDS011;4015;48.888;9.226;2023-09-18T10:44:37;5.47;;;2.00;;
7939;SDS011;4015;48.888;9.226;2023-09-18T10:47:05;7.60;;;2.30;;
7939;SDS011;4015;48.888;9.226;2023-09-18T10:49:31;4.88;;;2.30;;
7939;SDS011;4015;48.888;9.226;2023-09-18T10:51:57;7.50;;;2.30;;
7939;SDS011;4015;48.888;9.226;2023-09-18T10:54:24;3.80;;;2.03;;
7939;SDS011;4015;48.888;9.226;2023-09-18T10:56:51;4.07;;;2.17;;
7939;SDS011;4015;48.888;9.226;2023-09-18T10:59:16;5.03;;;1.58;;
7939;SDS011;4015;48.888;9.226;2023-09-18T11:01:42;5.60;;;2.33;;
7939;SDS011;4015;48.888;9.226;2023-09-18T11:04:09;4.47;;;1.90;;
7939;SDS011;4015;48.888;9.226;2023-09-18T11:09:22;3.42;;;1.73;;
7939;SDS011;4015;48.888;9.226;2023-09-18T11:11:53;4.40;;;1.90;;
7939;SDS011;4015;48.888;9.226;2023-09-18T11:14:22;3.08;;;1.98;;
7939;SDS011;4015;48.888;9.226;2023-09-18T11:16:51;7.40;;;1.90;;
7939;SDS011;4015;48.888;9.226;2023-09-18T11:19:16;4.05;;;2.03;;
7939;SDS011;4015;48.888;9.226;2023-09-18T11:21:43;5.13;;;1.90;;
7939;SDS011;4015;48.888;9.226;2023-09-18T11:24:17;2.90;;;1.70;;
7939;SDS011;4015;48.888;9.226;2023-09-18T11:26:48;6.55;;;2.00;;
7939;SDS011;4015;48.888;9.226;2023-09-18T11:29:16;2.35;;;1.70;;
7939;SDS011;4015;48.888;9.226;2023-09-18T11:31:54;4.93;;;1.73;;
7939;SDS011;4015;48.888;9.226;2023-09-18T11:34:25;2.15;;;1.58;;
7939;SDS011;4015;48.888;9.226;2023-09-18T11:36:56;4.07;;;1.90;;
7939;SDS011;4015;48.888;9.226;2023-09-18T11:39:32;4.65;;;1.77;;
7939;SDS011;4015;48.888;9.226;2023-09-18T11:44:57;3.65;;;1.83;;
7939;SDS011;4015;48.888;9.226;2023-09-18T11:47:23;2.45;;;1.45;;
7939;SDS011;4015;48.888;9.226;2023-09-18T11:49:50;2.00;;;1.40;;
7939;SDS011;4015;48.888;9.226;2023-09-18T11:52:19;2.50;;;1.80;;
7939;SDS011;4015;48.888;9.226;2023-09-18T11:54:46;7.95;;;1.88;;
7939;SDS011;4015;48.888;9.226;2023-09-18T11:57:12;4.72;;;1.98;;
7939;SDS011;4015;48.888;9.226;2023-09-18T11:59:39;3.20;;;1.48;;
7939;SDS011;4015;48.888;9.226;2023-09-18T12:02:07;2.15;;;1.63;;
7939;SDS011;4015;48.888;9.226;2023-09-18T12:04:34;3.53;;;1.33;;
7939;SDS011;4015;48.888;9.226;2023-09-18T12:07:00;5.15;;;1.50;;
7939;SDS011;4015;48.888;9.226;2023-09-18T12:09:28;5.78;;;1.63;;
7939;SDS011;4015;48.888;9.226;2023-09-18T12:11:57;4.40;;;1.33;;
7939;SDS011;4015;48.888;9.226;2023-09-18T12:14:23;5.60;;;1.75;;
7939;SDS011;4015;48.888;9.226;2023-09-18T12:16:49;2.80;;;1.92;;
7939;SDS011;4015;48.888;9.226;2023-09-18T12:19:18;3.15;;;1.10;;
7939;SDS011;4015;48.888;9.226;2023-09-18T12:21:47;3.97;;;1.20;;
7939;SDS011;4015;48.888;9.226;2023-09-18T12:24:14;2.95;;;1.40;;
7939;SDS011;4015;48.888;9.226;2023-09-18T12:26:49;2.08;;;1.35;;
7939;SDS011;4015;48.888;9.226;2023-09-18T12:29:15;5.32;;;1.63;;
7939;SDS011;4015;48.888;9.226;2023-09-18T12:31:41;2.38;;;1.48;;
7939;SDS011;4015;48.888;9.226;2023-09-18T12:34:19;2.88;;;1.52;;
7939;SDS011;4015;48.888;9.226;2023-09-18T12:36:46;3.80;;;1.42;;
7939;SDS011;4015;48.888;9.226;2023-09-18T12:39:13;2.45;;;1.50;;
7939;SDS011;4015;48.888;9.226;2023-09-18T12:41:41;5.45;;;1.42;;
7939;SDS011;4015;48.888;9.226;2023-09-18T12:44:07;2.28;;;1.25;;
7939;SDS011;4015;48.888;9.226;2023-09-18T12:46:34;2.63;;;1.20;;
7939;SDS011;4015;48.888;9.226;2023-09-18T12:48:59;3.70;;;1.23;;
7939;SDS011;4015;48.888;9.226;2023-09-18T12:51:40;3.13;;;1.20;;
7939;SDS011;4015;48.888;9.226;2023-09-18T12:54:05;1.92;;;1.30;;
7939;SDS011;4015;48.888;9.226;2023-09-18T12:56:31;3.35;;;1.40;;
7939;SDS011;4015;48.888;9.226;2023-09-18T12:58:57;1.85;;;1.17;;
7939;SDS011;4015;48.888;9.226;2023-09-18T13:01:23;2.55;;;1.25;;
7939;SDS011;4015;48.888;9.226;2023-09-18T13:03:49;3.15;;;1.40;;
7939;SDS011;4015;48.888;9.226;2023-09-18T13:06:18;3.75;;;1.42;;
7939;SDS011;4015;48.888;9.226;2023-09-18T13:08:43;4.07;;;1.65;;
7939;SDS011;4015;48.888;9.226;2023-09-18T13:11:09;2.92;;;1.48;;
7939;SDS011;4015;48.888;9.226;2023-09-18T13:13:37;4.53;;;1.30;;
7939;SDS011;4015;48.888;9.226;2023-09-18T13:16:06;2.45;;;1.20;;
7939;SDS011;4015;48.888;9.226;2023-09-18T13:18:34;5.60;;;1.42;;
7939;SDS011;4015;48.888;9.226;2023-09-18T13:21:00;2.17;;;1.10;;
7939;SDS011;4015;48.888;9.226;2023-09-18T13:23:27;4.32;;;1.63;;
7939;SDS011;4015;48.888;9.226;2023-09-18T13:25:58;3.28;;;1.35;;
7939;SDS011;4015;48.888;9.226;2023-09-18T13:28:24;3.55;;;1.48;;
7939;SDS011;4015;48.888;9.226;2023-09-18T13:30:49;5.85;;;1.38;;
7939;SDS011;4015;48.888;9.226;2023-09-18T13:33:15;1.98;;;1.20;;
7939;SDS011;4015;48.888;9.226;2023-09-18T13:35:42;2.95;;;1.40;;
7939;SDS011;4015;48.888;9.226;2023-09-18T13:38:09;2.45;;;1.27;;
7939;SDS011;4015;48.888;9.226;2023-09-18T13:40:39;1.80;;;1.42;;
7939;SDS011;4015;48.888;9.226;2023-09-18T13:43:09;2.40;;;1.40;;
7939;SDS011;4015;48.888;9.226;2023-09-18T13:45:35;2.72;;;1.50;;
7939;SDS011;4015;48.888;9.226;2023-09-18T13:48:01;6.35;;;1.63;;
7939;SDS011;4015;48.888;9.226;2023-09-18T13:50:27;1.35;;;1.00;;
7939;SDS011;4015;48.888;9.226;2023-09-18T13:52:53;2.72;;;1.23;;
7939;SDS011;4015;48.888;9.226;2023-09-18T13:55:19;2.97;;;1.30;;
7939;SDS011;4015;48.888;9.226;2023-09-18T13:57:44;2.38;;;0.98;;
7939;SDS011;4015;48.888;9.226;2023-09-18T14:00:10;4.15;;;1.35;;
7939;SDS011;4015;48.888;9.226;2023-09-18T14:02:37;2.05;;;1.20;;
7939;SDS011;4015;48.888;9.226;2023-09-18T14:05:03;2.08;;;1.20;;
7939;SDS011;4015;48.888;9.226;2023-09-18T14:07:30;1.70;;;0.90;;
7939;SDS011;4015;48.888;9.226;2023-09-18T14:09:55;2.75;;;1.20;;
7939;SDS011;4015;48.888;9.226;2023-09-18T14:12:20;1.52;;;0.82;;
7939;SDS011;4015;48.888;9.226;2023-09-18T14:14:46;3.05;;;1.35;;
7939;SDS011;4015;48.888;9.226;2023-09-18T14:17:11;2.85;;;0.98;;
7939;SDS011;4015;48.888;9.226;2023-09-18T14:19:37;2.35;;;1.15;;
7939;SDS011;4015;48.888;9.226;2023-09-18T14:22:03;4.78;;;1.40;;
7939;SDS011;4015;48.888;9.226;2023-09-18T14:24:33;3.92;;;1.38;;
7939;SDS011;4015;48.888;9.226;2023-09-18T14:27:01;3.40;;;1.00;;
7939;SDS011;4015;48.888;9.226;2023-09-18T14:29:31;4.10;;;0.95;;
7939;SDS011;4015;48.888;9.226;2023-09-18T14:31:57;1.67;;;1.00;;
7939;SDS011;4015;48.888;9.226;2023-09-18T14:34:22;6.82;;;1.20;;
7939;SDS011;4015;48.888;9.226;2023-09-18T14:36:47;1.75;;;1.20;;
7939;SDS011;4015;48.888;9.226;2023-09-18T14:39:13;1.92;;;1.20;;
7939;SDS011;4015;48.888;9.226;2023-09-18T14:41:38;2.67;;;1.33;;
7939;SDS011;4015;48.888;9.226;2023-09-18T14:44:04;3.05;;;1.10;;
7939;SDS011;4015;48.888;9.226;2023-09-18T14:46:31;2.70;;;0.90;;
7939;SDS011;4015;48.888;9.226;2023-09-18T14:49:00;5.60;;;1.05;;
7939;SDS011;4015;48.888;9.226;2023-09-18T14:51:26;2.75;;;0.90;;
7939;SDS011;4015;48.888;9.226;2023-09-18T14:53:53;2.22;;;0.93;;
7939;SDS011;4015;48.888;9.226;2023-09-18T14:56:19;4.00;;;1.15;;
7939;SDS011;4015;48.888;9.226;2023-09-18T14:58:44;2.17;;;1.00;;
7939;SDS011;4015;48.888;9.226;2023-09-18T15:01:10;2.90;;;1.10;;
7939;SDS011;4015;48.888;9.226;2023-09-18T15:03:36;2.28;;;1.02;;
7939;SDS011;4015;48.888;9.226;2023-09-18T15:06:01;2.17;;;0.80;;
7939;SDS011;4015;48.888;9.226;2023-09-18T15:08:27;2.97;;;1.25;;
7939;SDS011;4015;48.888;9.226;2023-09-18T15:10:52;3.25;;;0.93;;
7939;SDS011;4015;48.888;9.226;2023-09-18T15:13:18;3.88;;;1.23;;
7939;SDS011;4015;48.888;9.226;2023-09-18T15:15:43;2.50;;;1.13;;
7939;SDS011;4015;48.888;9.226;2023-09-18T15:18:09;1.65;;;0.93;;